createdAt,value
2023-01-23T00:01:18.140Z,1.70
2023-01-23T00:03:45.742Z,1.60
2023-01-23T00:06:15.778Z,1.60
2023-01-23T00:08:44.490Z,1.70
2023-01-23T00:11:14.744Z,1.60
2023-01-23T00:13:41.524Z,1.60
2023-01-23T00:16:12.000Z,1.60
2023-01-23T00:18:39.247Z,1.40
2023-01-23T00:21:08.341Z,1.40
2023-01-23T00:23:35.438Z,1.40
2023-01-23T00:26:04.916Z,1.40
2023-01-23T00:28:32.138Z,1.30
2023-01-23T00:31:09.393Z,1.30
2023-01-23T00:33:36.316Z,1.30
2023-01-23T00:36:03.737Z,1.40
2023-01-23T00:38:30.492Z,1.40
2023-01-23T00:40:57.477Z,1.40
2023-01-23T00:43:25.308Z,1.60
2023-01-23T00:45:51.996Z,1.60
2023-01-23T00:48:19.269Z,1.40
2023-01-23T00:50:46.870Z,1.50
2023-01-23T00:53:13.648Z,1.50
2023-01-23T00:55:41.437Z,1.70
2023-01-23T00:58:08.910Z,1.60
2023-01-23T01:00:37.165Z,1.60
2023-01-23T01:03:05.044Z,1.60
2023-01-23T01:05:32.545Z,1.60
2023-01-23T01:07:59.730Z,1.50
2023-01-23T01:10:30.394Z,1.40
2023-01-23T01:12:59.927Z,1.40
2023-01-23T01:15:28.760Z,1.40
2023-01-23T01:17:55.541Z,1.40
2023-01-23T01:20:23.866Z,1.40
2023-01-23T01:22:51.045Z,1.50
2023-01-23T01:25:18.663Z,1.40
2023-01-23T01:27:45.948Z,1.40
2023-01-23T01:30:13.182Z,1.50
2023-01-23T01:32:41.734Z,1.40
2023-01-23T01:35:09.602Z,1.50
2023-01-23T01:37:38.445Z,1.40
2023-01-23T01:40:07.284Z,1.60
2023-01-23T01:42:48.530Z,1.70
2023-01-23T01:45:52.774Z,1.60
2023-01-23T01:48:21.610Z,1.60
2023-01-23T01:50:48.666Z,1.60
2023-01-23T01:53:16.213Z,1.50
2023-01-23T01:55:43.534Z,1.60
2023-01-23T01:58:10.584Z,1.60
2023-01-23T02:00:37.317Z,1.50
2023-01-23T02:03:04.310Z,1.50
2023-01-23T02:05:37.867Z,1.60
2023-01-23T02:08:14.681Z,1.80
2023-01-23T02:10:43.088Z,1.70
2023-01-23T02:13:30.373Z,1.80
2023-01-23T02:15:59.354Z,1.80
2023-01-23T02:18:29.831Z,1.70
2023-01-23T02:20:58.674Z,1.80
2023-01-23T02:23:34.631Z,1.70
2023-01-23T02:26:05.559Z,1.70
2023-01-23T02:28:42.614Z,1.80
2023-01-23T02:31:10.392Z,1.90
2023-01-23T02:33:37.148Z,1.80
2023-01-23T02:36:05.545Z,1.90
2023-01-23T02:39:04.325Z,2.00
2023-01-23T02:41:34.084Z,1.90
2023-01-23T02:44:07.182Z,1.80
2023-01-23T02:46:34.227Z,1.70
2023-01-23T02:49:01.296Z,1.70
2023-01-23T02:51:28.366Z,1.90
2023-01-23T02:53:56.288Z,2.00
2023-01-23T02:56:23.383Z,2.10
2023-01-23T02:59:11.107Z,2.00
2023-01-23T03:01:37.834Z,2.10
2023-01-23T03:04:06.376Z,2.20
2023-01-23T03:06:38.383Z,2.20
2023-01-23T03:09:08.464Z,2.00
2023-01-23T03:11:36.815Z,1.90
2023-01-23T03:14:04.175Z,2.10
2023-01-23T03:16:32.827Z,2.10
2023-01-23T03:19:04.982Z,2.10
2023-01-23T03:21:33.250Z,2.10
2023-01-23T03:24:00.394Z,1.90
2023-01-23T03:26:27.220Z,2.00
2023-01-23T03:29:17.492Z,2.00
2023-01-23T03:31:44.445Z,1.80
2023-01-23T03:34:12.433Z,1.90
2023-01-23T03:36:41.086Z,2.00
2023-01-23T03:39:27.790Z,2.00
2023-01-23T03:41:54.836Z,1.90
2023-01-23T03:44:21.625Z,2.00
2023-01-23T03:46:50.225Z,2.20
2023-01-23T03:49:17.784Z,2.10
2023-01-23T03:51:45.122Z,2.10
2023-01-23T03:54:12.780Z,2.20
2023-01-23T03:56:39.615Z,2.30
2023-01-23T03:59:09.386Z,2.40
2023-01-23T04:01:38.319Z,2.10
2023-01-23T04:04:06.337Z,2.20
2023-01-23T04:06:33.213Z,2.30
2023-01-23T04:09:00.200Z,2.20
2023-01-23T04:11:27.053Z,2.20
2023-01-23T04:13:54.813Z,2.30
2023-01-23T04:16:22.870Z,2.30
2023-01-23T04:18:50.862Z,2.50
2023-01-23T04:21:18.334Z,2.60
2023-01-23T04:23:45.480Z,2.50
2023-01-23T04:26:13.035Z,2.40
2023-01-23T04:28:39.885Z,2.50
2023-01-23T04:31:09.270Z,2.60
2023-01-23T04:33:39.355Z,2.50
2023-01-23T04:36:06.803Z,2.50
2023-01-23T04:38:34.807Z,2.40
2023-01-23T04:41:01.963Z,2.30
2023-01-23T04:43:28.996Z,2.40
2023-01-23T04:45:56.933Z,2.50
2023-01-23T04:48:24.638Z,2.60
2023-01-23T04:50:51.723Z,2.50
2023-01-23T04:53:19.106Z,2.20
2023-01-23T04:55:49.726Z,2.30
2023-01-23T04:58:18.942Z,2.20
2023-01-23T05:00:48.528Z,2.20
2023-01-23T05:03:16.008Z,2.20
2023-01-23T05:05:44.292Z,2.20
2023-01-23T05:08:14.450Z,2.10
2023-01-23T05:10:41.455Z,2.30
2023-01-23T05:13:10.279Z,2.40
2023-01-23T05:15:37.202Z,2.40
2023-01-23T05:18:04.281Z,2.30
2023-01-23T05:20:31.245Z,2.30
2023-01-23T05:23:05.456Z,2.60
2023-01-23T05:25:32.348Z,2.30
2023-01-23T05:27:59.852Z,2.30
2023-01-23T05:30:26.814Z,2.30
2023-01-23T05:32:53.825Z,2.40
2023-01-23T05:35:21.743Z,2.20
2023-01-23T05:37:51.555Z,2.10
2023-01-23T05:40:20.681Z,2.10
2023-01-23T05:42:48.421Z,2.30
2023-01-23T05:45:16.989Z,2.30
2023-01-23T05:47:44.196Z,2.30
2023-01-23T05:50:17.910Z,2.20
2023-01-23T05:52:46.412Z,2.30
2023-01-23T05:55:13.610Z,2.40
2023-01-23T05:57:40.449Z,2.40
2023-01-23T06:00:08.269Z,2.30
2023-01-23T06:02:35.678Z,2.30
2023-01-23T06:05:02.708Z,2.30
2023-01-23T06:07:29.927Z,2.10
2023-01-23T06:09:58.044Z,2.30
2023-01-23T06:12:25.318Z,2.30
2023-01-23T06:14:54.438Z,2.50
2023-01-23T06:17:21.190Z,2.30
2023-01-23T06:19:48.533Z,2.40
2023-01-23T06:22:15.334Z,2.30
2023-01-23T06:24:42.348Z,2.40
2023-01-23T06:27:09.472Z,2.40
2023-01-23T06:29:37.423Z,2.40
2023-01-23T06:32:04.888Z,2.30
2023-01-23T06:34:31.920Z,2.30
2023-01-23T06:37:01.358Z,2.40
2023-01-23T06:39:30.165Z,2.40
2023-01-23T06:41:57.336Z,2.30
2023-01-23T06:44:25.382Z,2.50
2023-01-23T06:46:57.223Z,2.40
2023-01-23T06:49:27.358Z,2.30
2023-01-23T06:51:55.417Z,2.30
2023-01-23T06:54:25.025Z,2.40
2023-01-23T06:56:52.993Z,2.30
2023-01-23T06:59:20.078Z,2.40
2023-01-23T07:01:54.670Z,2.30
2023-01-23T07:04:21.493Z,2.20
2023-01-23T07:06:48.499Z,2.10
2023-01-23T07:09:15.531Z,2.10
2023-01-23T07:11:42.568Z,2.20
2023-01-23T07:14:10.428Z,2.30
2023-01-23T07:16:38.408Z,2.50
2023-01-23T07:19:08.240Z,2.50
2023-01-23T07:21:34.973Z,2.60
2023-01-23T07:24:02.793Z,2.40
2023-01-23T07:26:30.665Z,2.40
2023-01-23T07:29:00.198Z,2.60
2023-01-23T07:31:33.205Z,2.60
2023-01-23T07:33:59.908Z,2.50
2023-01-23T07:36:26.992Z,2.70
2023-01-23T07:38:56.459Z,2.60
2023-01-23T07:41:23.492Z,2.50
2023-01-23T07:43:54.716Z,2.30
2023-01-23T07:46:23.666Z,2.40
2023-01-23T07:48:51.027Z,2.40
2023-01-23T07:51:17.983Z,2.40
2023-01-23T07:53:44.903Z,2.40
2023-01-23T07:56:13.395Z,2.40
2023-01-23T07:58:41.531Z,2.30
2023-01-23T08:01:10.751Z,2.30
2023-01-23T08:03:37.671Z,2.40
2023-01-23T08:06:04.834Z,2.40
2023-01-23T08:08:31.825Z,2.50
2023-01-23T08:10:59.044Z,2.60
2023-01-23T08:13:25.860Z,2.60
2023-01-23T08:15:57.344Z,2.40
2023-01-23T08:18:25.793Z,2.20
2023-01-23T08:21:03.061Z,2.10
2023-01-23T08:23:33.505Z,2.20
2023-01-23T08:26:03.235Z,2.10
2023-01-23T08:28:30.827Z,2.30
2023-01-23T08:31:06.691Z,2.40
2023-01-23T08:33:35.203Z,2.40
2023-01-23T08:36:04.377Z,2.30
2023-01-23T08:38:31.931Z,2.30
2023-01-23T08:41:01.457Z,2.40
2023-01-23T08:43:33.367Z,2.40
2023-01-23T08:46:03.235Z,2.40
2023-01-23T08:48:31.386Z,2.40
2023-01-23T08:51:08.065Z,2.40
2023-01-23T08:53:36.802Z,2.40
2023-01-23T08:56:06.149Z,2.60
2023-01-23T08:58:33.309Z,2.50
2023-01-23T09:01:00.620Z,2.60
2023-01-23T09:03:28.458Z,2.50
2023-01-23T09:06:02.209Z,2.60
2023-01-23T09:08:30.196Z,2.60
2023-01-23T09:11:01.449Z,2.50
2023-01-23T09:13:28.618Z,2.60
2023-01-23T09:15:58.431Z,2.60
2023-01-23T09:18:27.673Z,2.70
2023-01-23T09:20:55.842Z,2.50
2023-01-23T09:23:23.395Z,2.50
2023-01-23T09:25:51.353Z,2.70
2023-01-23T09:28:18.465Z,2.50
2023-01-23T09:30:45.234Z,2.60
2023-01-23T09:33:14.458Z,2.80
2023-01-23T09:35:41.176Z,2.80
2023-01-23T09:38:09.068Z,2.70
2023-01-23T09:40:45.775Z,2.70
2023-01-23T09:43:34.304Z,2.70
2023-01-23T09:46:02.160Z,2.60
2023-01-23T09:48:45.515Z,2.70
2023-01-23T09:51:24.715Z,2.80
2023-01-23T09:53:58.126Z,2.80
2023-01-23T09:56:44.824Z,3.10
2023-01-23T09:59:38.880Z,3.20
2023-01-23T10:02:22.046Z,3.30
2023-01-23T10:04:51.391Z,3.60
2023-01-23T10:07:33.235Z,3.70
2023-01-23T10:10:29.557Z,3.80
2023-01-23T10:13:02.697Z,3.80
2023-01-23T10:15:32.284Z,3.90
2023-01-23T10:18:22.777Z,3.60
2023-01-23T10:21:05.863Z,3.80
2023-01-23T10:23:53.004Z,3.80
2023-01-23T10:26:23.820Z,3.80
2023-01-23T10:28:56.282Z,3.60
2023-01-23T10:31:35.792Z,3.90
2023-01-23T10:34:17.611Z,3.70
2023-01-23T10:36:56.722Z,3.60
2023-01-23T10:39:40.005Z,3.60
2023-01-23T10:42:16.616Z,3.60
2023-01-23T10:44:47.016Z,3.40
2023-01-23T10:47:37.091Z,3.50
2023-01-23T10:50:06.943Z,4.00
2023-01-23T10:52:37.041Z,3.80
2023-01-23T10:55:28.083Z,3.70
2023-01-23T10:58:03.128Z,3.50
2023-01-23T11:00:39.633Z,3.60
2023-01-23T11:03:21.920Z,3.60
2023-01-23T11:05:56.898Z,3.90
2023-01-23T11:08:29.607Z,4.00
2023-01-23T11:11:15.689Z,3.80
2023-01-23T11:13:47.037Z,4.00
2023-01-23T11:16:23.910Z,4.20
2023-01-23T11:19:03.896Z,4.30
2023-01-23T11:21:51.138Z,4.50
2023-01-23T11:24:39.913Z,4.50
2023-01-23T11:27:14.883Z,4.70
2023-01-23T11:30:01.164Z,4.80
2023-01-23T11:32:32.065Z,4.70
2023-01-23T11:35:19.978Z,4.40
2023-01-23T11:37:46.966Z,4.60
2023-01-23T11:40:18.174Z,4.80
2023-01-23T11:42:45.679Z,4.60
2023-01-23T11:45:43.686Z,4.40
2023-01-23T11:48:19.791Z,4.30
2023-01-23T11:50:55.975Z,4.00
2023-01-23T11:53:50.082Z,3.90
2023-01-23T11:56:35.080Z,4.10
2023-01-23T11:59:47.237Z,4.10
2023-01-23T12:02:19.803Z,4.30
2023-01-23T12:05:14.060Z,4.20
2023-01-23T12:08:16.218Z,4.30
2023-01-23T12:10:49.953Z,4.40
2023-01-23T12:13:45.674Z,4.40
2023-01-23T12:16:27.322Z,4.30
2023-01-23T12:19:16.367Z,4.40
2023-01-23T12:22:01.602Z,4.40
2023-01-23T12:24:31.456Z,4.20
2023-01-23T12:27:11.239Z,3.90
2023-01-23T12:30:09.279Z,3.90
2023-01-23T12:33:17.354Z,4.20
2023-01-23T12:35:47.297Z,4.30
2023-01-23T12:38:23.198Z,4.00
2023-01-23T12:41:07.487Z,3.90
2023-01-23T12:43:34.295Z,4.10
2023-01-23T12:46:11.799Z,4.10
2023-01-23T12:48:47.032Z,4.00
2023-01-23T12:51:50.799Z,4.10
2023-01-23T12:54:29.102Z,4.20
2023-01-23T12:56:59.393Z,4.40
2023-01-23T12:59:50.206Z,4.60
2023-01-23T13:02:33.994Z,4.70
2023-01-23T13:05:09.071Z,4.60
2023-01-23T13:07:42.817Z,4.40
2023-01-23T13:10:51.346Z,4.20
2023-01-23T13:13:21.390Z,4.10
2023-01-23T13:16:19.330Z,4.10
2023-01-23T13:19:16.291Z,4.10
2023-01-23T13:22:27.424Z,4.20
2023-01-23T13:25:13.044Z,4.10
2023-01-23T13:27:49.360Z,4.30
2023-01-23T13:30:39.355Z,4.50
2023-01-23T13:33:06.368Z,4.40
2023-01-23T13:35:44.539Z,4.30
2023-01-23T13:38:38.983Z,4.30
2023-01-23T13:41:11.384Z,4.10
2023-01-23T13:43:50.678Z,4.00
2023-01-23T14:21:57.822Z,4.10
2023-01-23T14:24:44.877Z,4.00
2023-01-23T14:27:53.275Z,4.00
2023-01-23T14:30:24.878Z,4.00
2023-01-23T14:32:52.968Z,3.90
2023-01-23T14:35:26.112Z,3.90
2023-01-23T14:37:55.490Z,3.90
2023-01-23T14:40:28.280Z,3.90
2023-01-23T14:43:03.687Z,3.90
2023-01-23T14:45:33.942Z,3.90
2023-01-23T14:48:06.667Z,3.90
2023-01-23T14:50:34.335Z,3.80
2023-01-23T14:53:06.983Z,3.70
2023-01-23T14:55:40.730Z,3.80
2023-01-23T14:58:13.020Z,3.80
2023-01-23T15:00:41.487Z,3.70
2023-01-23T15:03:12.524Z,3.70
2023-01-23T15:05:40.986Z,3.70
2023-01-23T15:08:24.478Z,3.70
2023-01-23T15:10:53.605Z,3.70
2023-01-23T15:13:24.500Z,3.80
2023-01-23T15:16:01.272Z,3.70
2023-01-23T15:18:30.560Z,3.60
2023-01-23T15:21:08.956Z,3.40
2023-01-23T15:23:40.873Z,3.40
2023-01-23T15:26:25.615Z,3.40
2023-01-23T15:29:00.267Z,3.60
2023-01-23T15:31:34.647Z,3.50
2023-01-23T15:34:16.886Z,3.40
2023-01-23T15:37:13.228Z,3.40
2023-01-23T15:39:55.589Z,3.40
2023-01-23T15:42:29.970Z,3.50
2023-01-23T15:45:01.165Z,3.60
2023-01-23T15:47:34.668Z,3.70
2023-01-23T15:50:01.820Z,3.60
2023-01-23T15:52:44.117Z,3.50
2023-01-23T15:55:11.813Z,3.50
2023-01-23T15:57:38.665Z,3.40
2023-01-23T16:00:15.844Z,3.50
2023-01-23T16:02:56.379Z,3.30
2023-01-23T16:05:30.956Z,3.30
2023-01-23T16:08:20.774Z,3.30
2023-01-23T16:10:50.625Z,3.30
2023-01-23T16:13:19.668Z,3.40
2023-01-23T16:15:49.924Z,3.40
2023-01-23T16:18:17.061Z,3.50
2023-01-23T16:21:07.173Z,3.40
2023-01-23T16:23:47.128Z,3.40
2023-01-23T16:26:21.259Z,3.40
2023-01-23T16:28:49.197Z,3.40
2023-01-23T16:31:19.869Z,3.40
2023-01-23T16:33:48.945Z,3.40
2023-01-23T16:36:19.696Z,3.40
2023-01-23T16:38:52.519Z,3.20
2023-01-23T16:41:20.306Z,3.20
2023-01-23T16:43:47.499Z,3.10
2023-01-23T16:46:17.613Z,3.00
2023-01-23T16:48:46.697Z,3.00
2023-01-23T16:51:23.252Z,3.00
2023-01-23T16:53:53.875Z,3.00
2023-01-23T16:56:29.279Z,3.00
2023-01-23T16:58:57.469Z,2.90
2023-01-23T17:01:36.900Z,3.00
2023-01-23T17:04:04.491Z,2.90
2023-01-23T17:06:35.366Z,2.90
2023-01-23T17:09:08.674Z,2.90
2023-01-23T17:11:55.975Z,3.00
2023-01-23T17:14:30.747Z,3.00
2023-01-23T17:17:10.111Z,3.00
2023-01-23T17:19:47.085Z,3.10
2023-01-23T17:22:30.367Z,3.10
2023-01-23T17:25:00.504Z,3.00
2023-01-23T17:27:27.431Z,2.90
2023-01-23T17:29:54.099Z,2.80
2023-01-23T17:32:36.835Z,2.80
2023-01-23T17:35:08.118Z,2.80
2023-01-23T17:37:45.246Z,2.70
2023-01-23T17:40:16.645Z,2.70
2023-01-23T17:42:56.025Z,2.70
2023-01-23T17:45:28.159Z,2.80
2023-01-23T17:47:55.761Z,2.70
2023-01-23T17:50:25.628Z,2.80
2023-01-23T17:52:53.396Z,2.70
2023-01-23T17:55:28.784Z,2.70
2023-01-23T17:57:56.821Z,2.70
2023-01-23T18:00:24.057Z,2.70
2023-01-23T18:03:07.847Z,2.80
2023-01-23T18:05:35.629Z,2.90
2023-01-23T18:08:02.715Z,2.80
2023-01-23T18:10:35.514Z,2.80
2023-01-23T18:13:35.345Z,2.80
2023-01-23T18:21:56.611Z,2.70
2023-01-23T18:24:28.389Z,2.70
2023-01-23T18:27:25.523Z,2.70
2023-01-23T18:30:31.054Z,2.80
2023-01-23T18:33:07.038Z,2.90
2023-01-23T18:36:12.679Z,2.80
2023-01-23T18:38:54.349Z,2.70
2023-01-23T18:41:30.724Z,2.70
2023-01-23T18:44:18.023Z,2.70
2023-01-23T18:46:55.494Z,2.70
2023-01-23T18:49:32.268Z,2.70
2023-01-23T18:52:18.122Z,2.70
2023-01-23T18:54:51.518Z,2.70
2023-01-23T18:57:38.089Z,2.80
2023-01-23T19:00:12.726Z,2.80
2023-01-23T19:02:50.206Z,2.70
2023-01-23T19:05:28.696Z,2.70
2023-01-23T19:07:59.979Z,2.70
2023-01-23T19:10:32.500Z,2.80
2023-01-23T19:13:29.568Z,2.70
2023-01-23T19:16:08.426Z,2.60
2023-01-23T19:18:50.499Z,2.60
2023-01-23T19:21:28.147Z,2.50
2023-01-23T19:24:03.647Z,2.50
2023-01-23T19:26:35.869Z,2.60
2023-01-23T19:29:20.863Z,2.70
2023-01-23T19:32:06.031Z,2.90
2023-01-23T19:34:34.925Z,3.00
2023-01-23T19:37:05.545Z,3.10
2023-01-23T19:39:44.111Z,2.90
2023-01-23T19:42:33.805Z,2.90
2023-01-23T19:47:53.429Z,3.00
2023-01-23T19:50:23.517Z,3.10
2023-01-23T19:52:56.767Z,3.00
2023-01-23T19:55:36.172Z,3.00
2023-01-23T19:58:02.935Z,3.00
2023-01-23T20:00:48.934Z,3.00
2023-01-23T20:03:18.816Z,3.00
2023-01-23T20:05:46.720Z,3.00
2023-01-23T20:08:14.607Z,2.80
2023-01-23T20:10:47.028Z,2.70
2023-01-23T20:13:16.917Z,2.70
2023-01-23T20:16:09.684Z,2.70
2023-01-23T20:18:38.393Z,2.80
2023-01-23T20:23:40.480Z,2.90
2023-01-23T20:26:07.481Z,3.00
2023-01-23T20:28:34.595Z,2.90
2023-01-23T20:31:32.495Z,2.80
2023-01-23T20:36:28.747Z,2.90
2023-01-23T20:38:56.895Z,2.80
2023-01-23T20:41:23.691Z,2.90
2023-01-23T20:46:28.041Z,3.00
2023-01-23T20:48:55.837Z,2.90
2023-01-23T20:51:22.444Z,2.80
2023-01-23T20:53:50.295Z,2.90
2023-01-23T20:56:27.498Z,3.00
2023-01-23T20:59:16.379Z,3.00
2023-01-23T21:04:26.301Z,3.00
2023-01-23T21:06:55.174Z,3.20
2023-01-23T21:09:24.993Z,3.20
2023-01-23T21:12:07.305Z,3.30
2023-01-23T21:14:35.501Z,3.30
2023-01-23T21:17:08.914Z,3.20
2023-01-23T21:19:37.537Z,3.10
2023-01-23T21:22:10.344Z,3.10
2023-01-23T21:24:42.989Z,3.00
2023-01-23T21:27:15.686Z,3.10
2023-01-23T21:29:48.419Z,3.10
2023-01-23T21:32:16.270Z,3.10
2023-01-23T21:34:45.069Z,3.10
2023-01-23T21:37:12.957Z,3.00
2023-01-23T21:39:46.246Z,2.90
2023-01-23T21:44:52.583Z,3.10
2023-01-23T21:47:27.290Z,3.20
2023-01-23T21:49:54.050Z,2.90
2023-01-23T21:52:23.080Z,3.10
2023-01-23T21:54:59.973Z,2.90
2023-01-23T21:57:27.807Z,2.90
2023-01-23T22:00:15.032Z,2.80
2023-01-23T22:02:49.774Z,2.90
2023-01-23T22:05:16.823Z,2.90
2023-01-23T22:07:43.923Z,2.90
2023-01-23T22:10:16.111Z,2.90
2023-01-23T22:12:42.877Z,2.80
2023-01-23T22:15:12.054Z,2.90
2023-01-23T22:17:41.071Z,2.90
2023-01-23T22:20:11.885Z,2.90
2023-01-23T22:22:54.035Z,3.00
2023-01-23T22:25:22.259Z,2.90
2023-01-23T22:27:50.550Z,2.90
2023-01-23T22:30:44.297Z,3.00
2023-01-23T22:38:39.467Z,2.80
2023-01-23T22:41:07.194Z,2.90
2023-01-23T22:43:35.216Z,3.00
2023-01-23T22:46:17.395Z,2.90
2023-01-23T22:48:46.549Z,2.80
2023-01-23T22:51:25.114Z,2.90
2023-01-23T22:53:53.438Z,2.90
2023-01-23T22:56:20.970Z,2.90
2023-01-23T22:58:52.439Z,3.00
2023-01-23T23:01:23.409Z,2.90
2023-01-23T23:03:57.498Z,2.80
2023-01-23T23:06:25.608Z,2.80
2023-01-23T23:11:35.175Z,2.90
2023-01-23T23:14:03.239Z,2.90
2023-01-23T23:16:32.088Z,2.80
2023-01-23T23:19:03.508Z,2.80
2023-01-23T23:21:36.107Z,2.80
2023-01-23T23:24:07.568Z,2.70
2023-01-23T23:26:40.299Z,2.70
2023-01-23T23:29:08.246Z,2.70
2023-01-23T23:31:51.964Z,2.70
2023-01-23T23:34:20.084Z,2.80
2023-01-23T23:36:53.300Z,2.80
2023-01-23T23:39:22.001Z,2.90
2023-01-23T23:41:53.954Z,2.90
2023-01-23T23:44:21.861Z,2.90
2023-01-23T23:46:57.964Z,3.00
2023-01-23T23:49:26.338Z,3.00
2023-01-23T23:51:58.687Z,3.10
2023-01-23T23:54:25.582Z,3.00
2023-01-23T23:56:53.478Z,2.90
2023-01-23T23:59:21.258Z,2.70
